Time;durP1;ratioP1;P1;durP2;ratioP2;P2;SDS_P1;SDS_P2;PMS_P1;PMS_P2;Temp;Humidity;BMP_temperature;BMP_pressure;BME280_temperature;BME280_humidity;BME280_pressure;Samples;Min_cycle;Max_cycle;Signal;HPM_P1;HPM_P2
2023/12/27 00:02:03;;;;;;;17.60;6.70;;;;;;;8.38;66.62;100865.35;107574;1256;107413;-67
2023/12/27 00:04:31;;;;;;;18.40;7.30;;;;;;;8.37;66.39;100865.95;107547;1251;97848;-66
2023/12/27 00:07:00;;;;;;;15.60;7.20;;;;;;;8.32;66.01;100866.86;107609;1251;97850;-65
2023/12/27 00:09:28;;;;;;;13.50;6.60;;;;;;;8.26;66.07;100866.13;107612;1256;110809;-65
2023/12/27 00:11:57;;;;;;;13.40;6.10;;;;;;;8.21;65.94;100867.52;107561;1255;107921;-65
2023/12/27 00:14:25;;;;;;;13.10;7.10;;;;;;;8.16;66.00;100873.11;107635;1251;108272;-64
2023/12/27 00:16:55;;;;;;;10.40;5.50;;;;;;;8.08;66.00;100876.90;107558;1251;97813;-64
2023/12/27 00:19:23;;;;;;;9.90;5.10;;;;;;;8.02;66.02;100882.41;107611;1251;97710;-68
2023/12/27 00:21:52;;;;;;;12.70;6.00;;;;;;;7.95;66.00;100884.84;107627;1251;111994;-65
2023/12/27 00:24:20;;;;;;;15.70;5.20;;;;;;;7.89;66.02;100891.05;107554;1252;108309;-64
2023/12/27 00:26:49;;;;;;;11.30;5.60;;;;;;;7.83;66.26;100895.97;107573;1252;108244;-65
2023/12/27 00:29:17;;;;;;;11.30;5.60;;;;;;;7.77;66.16;100906.40;107562;1256;97829;-66
2023/12/27 00:31:46;;;;;;;9.10;5.20;;;;;;;7.67;66.20;100908.02;107604;1251;97799;-65
2023/12/27 00:34:15;;;;;;;11.10;5.30;;;;;;;7.62;66.24;100907.90;107626;1254;110773;-66
2023/12/27 00:36:44;;;;;;;9.70;5.10;;;;;;;7.58;66.32;100913.55;107642;1256;107438;-65
2023/12/27 00:39:12;;;;;;;9.60;4.90;;;;;;;7.54;66.42;100912.94;107523;1251;107089;-65
2023/12/27 00:41:41;;;;;;;8.60;4.60;;;;;;;7.49;66.46;100920.60;107604;1251;97813;-64
2023/12/27 00:44:10;;;;;;;8.70;4.10;;;;;;;7.45;66.51;100930.00;107574;1251;97837;-63
2023/12/27 00:46:38;;;;;;;12.90;4.30;;;;;;;7.40;66.37;100923.73;107608;1251;111224;-64
2023/12/27 00:49:07;;;;;;;8.90;4.00;;;;;;;7.36;66.72;100928.69;107629;1251;108423;-64
2023/12/27 00:51:35;;;;;;;8.20;4.20;;;;;;;7.33;66.77;100931.03;107590;1251;108347;-65
2023/12/27 00:54:04;;;;;;;11.50;3.80;;;;;;;7.31;66.95;100932.75;107582;1251;97847;-69
2023/12/27 00:56:32;;;;;;;12.20;3.90;;;;;;;7.29;67.03;100939.17;107583;1251;98454;-65
2023/12/27 00:59:01;;;;;;;6.80;3.50;;;;;;;7.29;67.15;100935.76;107565;1252;110643;-67
2023/12/27 01:01:30;;;;;;;9.60;3.90;;;;;;;7.30;67.49;100932.55;107598;1253;108248;-66
2023/12/27 01:03:58;;;;;;;9.40;3.20;;;;;;;7.30;67.63;100936.47;107591;1254;106352;-64
2023/12/27 01:06:27;;;;;;;11.60;4.00;;;;;;;7.32;67.97;100938.61;107536;1254;97851;-65
2023/12/27 01:08:55;;;;;;;8.70;3.30;;;;;;;7.33;68.02;100938.70;107600;1251;97825;-65
2023/12/27 01:11:24;;;;;;;8.00;3.60;;;;;;;7.33;68.15;100937.08;107605;1254;111952;-66
2023/12/27 01:13:53;;;;;;;8.90;3.70;;;;;;;7.36;68.45;100931.87;107566;1255;108655;-66
2023/12/27 01:16:21;;;;;;;8.80;3.30;;;;;;;7.42;68.57;100935.75;107491;1255;107511;-66
2023/12/27 01:18:50;;;;;;;15.70;5.00;;;;;;;7.44;68.57;100940.92;107602;1254;97844;-67
2023/12/27 01:21:18;;;;;;;12.60;6.70;;;;;;;7.44;68.59;100941.28;107650;1256;98334;-65
2023/12/27 01:23:47;;;;;;;12.90;5.80;;;;;;;7.46;68.76;100936.89;107606;1256;110162;-66
2023/12/27 01:26:16;;;;;;;11.10;5.10;;;;;;;7.46;68.90;100928.49;107601;1253;108509;-64
2023/12/27 01:28:44;;;;;;;13.40;5.90;;;;;;;7.46;68.83;100931.90;107515;1254;108515;-63
2023/12/27 01:31:13;;;;;;;11.00;5.40;;;;;;;7.46;68.82;100941.85;107489;1254;97825;-64
2023/12/27 01:33:41;;;;;;;11.30;5.00;;;;;;;7.45;68.75;100941.58;107585;1255;97723;-66
2023/12/27 01:36:10;;;;;;;12.00;6.50;;;;;;;7.45;68.88;100942.14;107613;1254;111157;-64
2023/12/27 01:38:38;;;;;;;11.80;5.20;;;;;;;7.45;68.69;100942.50;107566;1254;108418;-65
2023/12/27 01:41:07;;;;;;;12.10;5.10;;;;;;;7.44;68.76;100946.14;107592;1254;107024;-63
2023/12/27 01:43:35;;;;;;;15.00;4.50;;;;;;;7.43;68.98;100941.88;107559;1251;97863;-65
2023/12/27 01:46:04;;;;;;;9.50;5.00;;;;;;;7.43;68.82;100944.56;107561;1252;97842;-65
2023/12/27 01:48:36;;;;;;;14.00;4.60;;;;;;;7.44;68.95;100949.85;107593;1251;110898;-66
2023/12/27 01:51:05;;;;;;;10.30;4.50;;;;;;;7.43;68.99;100956.17;107544;1255;108080;-66
2023/12/27 01:53:34;;;;;;;8.60;4.30;;;;;;;7.37;68.74;100957.52;107574;1256;106127;-65
2023/12/27 01:56:02;;;;;;;9.50;3.80;;;;;;;7.34;68.80;100960.55;107552;1255;97833;-65
2023/12/27 01:58:31;;;;;;;8.10;4.50;;;;;;;7.29;68.55;100959.48;107654;1251;97825;-66
2023/12/27 02:01:00;;;;;;;10.00;4.60;;;;;;;7.22;68.38;100961.83;107595;1252;111908;-70
2023/12/27 02:03:28;;;;;;;10.20;4.00;;;;;;;7.13;68.28;100960.83;107569;1257;108362;-64
2023/12/27 02:05:59;;;;;;;7.60;4.40;;;;;;;7.03;68.32;100961.84;107565;1255;107152;-64
2023/12/27 02:08:28;;;;;;;9.00;3.90;;;;;;;6.99;68.39;100965.23;107629;1254;97826;-64
2023/12/27 02:10:57;;;;;;;12.70;4.60;;;;;;;6.90;68.15;100971.52;107577;1254;98366;-63
2023/12/27 02:13:25;;;;;;;11.00;4.50;;;;;;;6.82;68.31;100974.23;107603;1256;111124;-64
2023/12/27 02:15:54;;;;;;;9.50;4.40;;;;;;;6.73;68.32;100973.03;107600;1251;107471;-63
2023/12/27 02:18:23;;;;;;;10.10;4.50;;;;;;;6.62;68.32;100979.71;107483;1254;108488;-64
2023/12/27 02:20:53;;;;;;;9.90;4.20;;;;;;;6.49;68.27;100985.94;107547;1251;97822;-64
2023/12/27 02:23:25;;;;;;;19.90;5.20;;;;;;;6.38;68.30;100991.41;107522;1254;97858;-64
2023/12/27 02:25:54;;;;;;;10.70;4.90;;;;;;;6.30;68.39;100991.98;107559;1251;111053;-65
2023/12/27 02:28:23;;;;;;;8.10;3.80;;;;;;;6.23;68.57;100995.50;107654;1251;107269;-65
2023/12/27 02:30:54;;;;;;;6.70;4.10;;;;;;;6.11;68.40;101002.13;107509;1253;106805;-65
2023/12/27 02:33:25;;;;;;;7.30;3.70;;;;;;;6.02;68.27;100998.81;107646;1251;97846;-65
2023/12/27 02:35:53;;;;;;;11.20;4.50;;;;;;;5.95;68.48;100995.36;107589;1251;97865;-64
2023/12/27 02:38:22;;;;;;;7.90;3.80;;;;;;;5.90;68.62;100995.82;107517;1251;112361;-64
2023/12/27 02:40:51;;;;;;;11.50;4.70;;;;;;;5.83;68.59;100984.19;107542;1251;108718;-63
2023/12/27 02:43:19;;;;;;;13.00;4.10;;;;;;;5.78;68.81;100991.27;107554;1257;108279;-63
2023/12/27 02:45:48;;;;;;;11.90;4.40;;;;;;;5.73;68.98;100993.89;107549;1254;97912;-65
2023/12/27 02:48:16;;;;;;;10.20;4.20;;;;;;;5.69;69.15;100995.60;107603;1255;98357;-63
2023/12/27 02:50:45;;;;;;;11.80;4.30;;;;;;;5.64;69.35;101005.33;107598;1251;112232;-62
2023/12/27 02:53:13;;;;;;;13.30;4.10;;;;;;;5.61;69.68;101005.30;107587;1254;108323;-62
2023/12/27 02:55:41;;;;;;;9.20;4.10;;;;;;;5.62;69.80;101006.55;107555;1259;107834;-63
2023/12/27 02:58:10;;;;;;;8.40;3.50;;;;;;;5.61;69.82;101003.17;107541;1251;97848;-64
2023/12/27 03:00:39;;;;;;;7.50;3.60;;;;;;;5.61;69.87;100999.46;107579;1251;98369;-65
2023/12/27 03:03:08;;;;;;;10.00;4.30;;;;;;;5.60;69.88;101005.19;107480;1251;111837;-66
2023/12/27 03:05:36;;;;;;;10.60;3.80;;;;;;;5.58;69.89;101006.44;107606;1252;108559;-64
2023/12/27 03:08:05;;;;;;;11.00;4.20;;;;;;;5.56;69.90;101003.35;107479;1251;108290;-65
2023/12/27 03:10:33;;;;;;;12.10;3.90;;;;;;;5.52;70.23;101004.49;107536;1257;97895;-64
2023/12/27 03:13:02;;;;;;;12.60;4.50;;;;;;;5.50;70.28;101001.44;107467;1251;97732;-64
2023/12/27 03:15:30;;;;;;;7.60;3.70;;;;;;;5.49;70.33;101003.40;107449;1257;111488;-63
2023/12/27 03:17:59;;;;;;;6.40;3.60;;;;;;;5.48;70.39;101001.19;107589;1251;106803;-64
2023/12/27 03:20:28;;;;;;;8.20;4.10;;;;;;;5.45;70.40;100997.44;107533;1250;108838;-63
2023/12/27 03:22:56;;;;;;;9.20;4.00;;;;;;;5.39;70.12;100996.24;107470;1254;97905;-65
2023/12/27 03:25:24;;;;;;;11.10;4.50;;;;;;;5.30;70.09;101003.35;107440;1255;97368;-63
2023/12/27 03:27:53;;;;;;;11.80;3.20;;;;;;;5.23;70.05;101004.36;107460;1251;112478;-65
2023/12/27 03:30:22;;;;;;;7.80;3.60;;;;;;;5.17;70.11;101002.02;107500;1255;107469;-64
2023/12/27 03:32:51;;;;;;;7.20;3.60;;;;;;;5.14;70.31;101007.20;107540;1251;107758;-64
2023/12/27 03:35:20;;;;;;;9.80;4.10;;;;;;;5.12;70.38;101005.17;107448;1251;97821;-64
2023/12/27 03:37:48;;;;;;;15.90;4.20;;;;;;;5.11;70.55;100998.84;107554;1251;97710;-65
2023/12/27 03:40:17;;;;;;;14.50;5.70;;;;;;;5.14;70.65;100999.96;107463;1251;111466;-64
2023/12/27 03:42:46;;;;;;;12.00;4.10;;;;;;;5.13;70.69;101006.20;107562;1256;107715;-64
2023/12/27 03:45:17;;;;;;;9.30;4.10;;;;;;;5.10;70.67;101012.97;107576;1254;106876;-64
2023/12/27 03:47:46;;;;;;;11.30;4.10;;;;;;;5.05;70.65;101018.77;107559;1257;97863;-63
2023/12/27 03:50:14;;;;;;;13.40;4.60;;;;;;;5.02;70.26;101030.35;107597;1255;98359;-63
2023/12/27 03:52:43;;;;;;;9.80;4.90;;;;;;;4.99;70.53;101058.07;107584;1254;111326;-63
2023/12/27 03:55:12;;;;;;;15.60;4.40;;;;;;;4.92;70.74;101074.81;107522;1257;108985;-63
2023/12/27 03:57:40;;;;;;;10.20;5.10;;;;;;;4.86;71.04;101068.08;107599;1255;107272;-63
2023/12/27 04:00:10;;;;;;;11.50;5.80;;;;;;;4.86;71.56;101076.27;107570;1254;97888;-65
2023/12/27 04:02:40;;;;;;;10.00;5.20;;;;;;;4.89;72.00;101080.73;107552;1254;97837;-63
2023/12/27 04:05:09;;;;;;;11.30;4.70;;;;;;;4.91;72.09;101084.17;107622;1255;111457;-63
2023/12/27 04:07:37;;;;;;;11.70;4.80;;;;;;;4.92;71.89;101081.42;107635;1254;107907;-64
2023/12/27 04:10:06;;;;;;;10.50;4.30;;;;;;;4.92;71.55;101085.16;107470;1257;107298;-65
2023/12/27 04:12:35;;;;;;;15.40;5.10;;;;;;;4.90;71.86;101076.08;107576;1255;97838;-64
2023/12/27 04:15:04;;;;;;;8.00;4.80;;;;;;;4.85;71.85;101079.15;107668;1251;97869;-65
2023/12/27 04:17:33;;;;;;;16.80;5.10;;;;;;;4.81;71.95;101088.98;107524;1251;112191;-64
2023/12/27 04:20:02;;;;;;;14.30;5.50;;;;;;;4.78;72.00;101090.10;107613;1255;107499;-64
2023/12/27 04:22:31;;;;;;;6.90;3.90;;;;;;;4.73;71.82;101092.66;107473;1254;108356;-64
2023/12/27 04:24:59;;;;;;;13.00;4.70;;;;;;;4.69;72.01;101098.57;107506;1254;97821;-64
2023/12/27 04:27:28;;;;;;;12.00;4.70;;;;;;;4.67;72.11;101098.90;107642;1254;97827;-63
2023/12/27 04:29:57;;;;;;;10.10;4.30;;;;;;;4.66;71.89;101098.23;107546;1251;111186;-64
2023/12/27 04:32:25;;;;;;;10.00;4.70;;;;;;;4.66;72.51;101106.08;107590;1251;108859;-64
2023/12/27 04:34:55;;;;;;;9.80;5.00;;;;;;;4.63;72.17;101101.46;107581;1254;108248;-63
2023/12/27 04:37:24;;;;;;;15.00;4.80;;;;;;;4.61;72.31;101099.09;107535;1254;97809;-63
2023/12/27 04:39:53;;;;;;;12.00;4.90;;;;;;;4.58;72.39;101099.95;107599;1253;98472;-64
2023/12/27 04:42:21;;;;;;;15.20;6.90;;;;;;;4.57;72.55;101106.91;107586;1251;112758;-64
2023/12/27 04:44:49;;;;;;;8.70;4.60;;;;;;;4.58;72.71;101111.31;107476;1254;108554;-65
2023/12/27 04:47:18;;;;;;;8.20;3.90;;;;;;;4.56;72.56;101121.04;107481;1254;108302;-68
2023/12/27 04:49:46;;;;;;;11.00;4.90;;;;;;;4.57;72.86;101128.98;107651;1251;97877;-64
2023/12/27 04:52:15;;;;;;;10.10;4.30;;;;;;;4.58;72.98;101126.95;107522;1251;98362;-65
2023/12/27 04:54:44;;;;;;;13.10;5.70;;;;;;;4.56;72.63;101125.62;107559;1251;111706;-65
2023/12/27 04:57:13;;;;;;;10.70;4.70;;;;;;;4.54;72.60;101127.72;107450;1251;108395;-64
2023/12/27 04:59:42;;;;;;;8.40;4.80;;;;;;;4.50;72.45;101126.85;107439;1254;106558;-64
2023/12/27 05:02:11;;;;;;;7.00;3.70;;;;;;;4.48;72.40;101132.30;107578;1251;97859;-66
2023/12/27 05:04:39;;;;;;;8.60;4.10;;;;;;;4.46;72.48;101138.44;107509;1251;97928;-65
2023/12/27 05:07:08;;;;;;;11.50;4.30;;;;;;;4.44;72.23;101144.65;107562;1255;111201;-64
2023/12/27 05:09:37;;;;;;;11.90;4.20;;;;;;;4.37;71.97;101131.14;107506;1254;108115;-63
2023/12/27 05:12:06;;;;;;;12.20;4.80;;;;;;;4.30;72.08;101130.27;107504;1251;107592;-63
2023/12/27 05:14:34;;;;;;;9.20;4.40;;;;;;;4.25;72.30;101133.08;107588;1252;97831;-64
2023/12/27 05:17:04;;;;;;;9.70;4.80;;;;;;;4.19;71.93;101145.44;107620;1255;98241;-63
2023/12/27 05:19:32;;;;;;;7.80;4.50;;;;;;;4.13;72.15;101152.92;107678;1251;112192;-66
2023/12/27 05:22:01;;;;;;;10.80;4.80;;;;;;;4.07;71.61;101143.13;107600;1251;108337;-65
2023/12/27 05:24:29;;;;;;;8.70;4.30;;;;;;;4.03;71.62;101151.32;107627;1253;106966;-66
2023/12/27 05:26:57;;;;;;;10.20;5.00;;;;;;;4.01;71.68;101153.23;107639;1251;97818;-65
2023/12/27 05:29:26;;;;;;;10.50;4.80;;;;;;;3.98;71.68;101151.40;107635;1251;97614;-67
2023/12/27 05:31:57;;;;;;;10.20;4.70;;;;;;;3.96;71.56;101150.84;107662;1255;110073;-64
2023/12/27 05:34:25;;;;;;;11.60;6.50;;;;;;;3.91;71.55;101166.34;107598;1251;107939;-64
2023/12/27 05:36:53;;;;;;;10.00;4.80;;;;;;;3.90;71.47;101175.29;107613;1251;108780;-65
2023/12/27 05:39:22;;;;;;;6.90;4.80;;;;;;;3.89;71.57;101190.57;107491;1257;97921;-66
2023/12/27 05:41:50;;;;;;;8.90;4.80;;;;;;;3.87;71.65;101180.56;107630;1254;97940;-64
2023/12/27 05:44:19;;;;;;;10.20;5.20;;;;;;;3.81;71.59;101180.88;107499;1254;111380;-62
2023/12/27 05:46:47;;;;;;;7.90;4.40;;;;;;;3.78;71.59;101188.54;107448;1251;107213;-65
2023/12/27 05:49:16;;;;;;;9.80;4.10;;;;;;;3.74;71.57;101194.03;107456;1250;107984;-65
2023/12/27 05:51:44;;;;;;;9.70;5.00;;;;;;;3.71;71.62;101191.35;107514;1251;97816;-65
2023/12/27 05:54:13;;;;;;;14.80;4.60;;;;;;;3.70;71.78;101185.92;107527;1251;96919;-64
2023/12/27 05:56:42;;;;;;;8.10;4.60;;;;;;;3.71;71.77;101195.27;107520;1251;112359;-64
2023/12/27 05:59:10;;;;;;;9.50;4.40;;;;;;;3.70;71.90;101199.23;107480;1251;108684;-66
2023/12/27 06:01:46;;;;;;;10.40;4.60;;;;;;;3.71;71.93;101203.08;107425;1251;107784;-62
2023/12/27 06:04:15;;;;;;;11.00;4.60;;;;;;;3.71;72.08;101204.63;107466;1250;97850;-64
2023/12/27 06:06:44;;;;;;;9.00;5.60;;;;;;;3.70;72.34;101215.70;107498;1251;97855;-64
2023/12/27 06:09:12;;;;;;;9.00;5.30;;;;;;;3.69;72.38;101228.91;107467;1251;111329;-64
2023/12/27 06:11:40;;;;;;;13.80;5.30;;;;;;;3.69;72.64;101234.59;107508;1251;106359;-64
2023/12/27 06:14:09;;;;;;;9.30;4.30;;;;;;;3.68;72.61;101231.96;107477;1251;108319;-65
2023/12/27 06:16:37;;;;;;;9.20;4.90;;;;;;;3.69;72.71;101236.89;107457;1251;97812;-64
2023/12/27 06:19:06;;;;;;;10.90;5.00;;;;;;;3.72;72.92;101245.96;107480;1251;97698;-64
2023/12/27 06:21:35;;;;;;;7.90;4.60;;;;;;;3.76;73.04;101248.75;107516;1251;111241;-65
2023/12/27 06:24:04;;;;;;;11.30;5.00;;;;;;;3.83;73.11;101254.80;107493;1251;107381;-63
2023/12/27 06:26:32;;;;;;;12.10;5.30;;;;;;;3.89;73.27;101260.47;107474;1251;107945;-64
2023/12/27 06:29:00;;;;;;;12.00;4.80;;;;;;;3.96;73.68;101276.27;107437;1251;97693;-63
2023/12/27 06:31:29;;;;;;;13.10;4.90;;;;;;;4.03;73.59;101279.83;107521;1251;97739;-63
2023/12/27 06:33:57;;;;;;;19.00;10.70;;;;;;;4.07;73.68;101285.44;107475;1251;111697;-63
2023/12/27 06:36:26;;;;;;;10.30;5.60;;;;;;;4.11;73.60;101292.18;107418;1251;108673;-63
2023/12/27 06:38:55;;;;;;;21.00;7.00;;;;;;;4.21;74.26;101294.87;107523;1250;107178;-63
2023/12/27 06:41:23;;;;;;;11.50;5.30;;;;;;;4.29;74.16;101302.42;107460;1254;98276;-65
2023/12/27 06:43:52;;;;;;;14.00;6.60;;;;;;;4.33;73.91;101313.73;107601;1254;97847;-65
2023/12/27 06:46:21;;;;;;;99.20;10.10;;;;;;;4.43;74.10;101324.41;107549;1251;112278;-64
2023/12/27 06:48:49;;;;;;;29.00;7.10;;;;;;;4.51;74.12;101330.20;107575;1251;108641;-63
2023/12/27 06:51:18;;;;;;;36.00;6.90;;;;;;;4.58;74.08;101329.11;107604;1251;106919;-64
2023/12/27 06:53:46;;;;;;;20.50;6.50;;;;;;;4.64;74.11;101329.67;107571;1251;97842;-65
2023/12/27 06:56:15;;;;;;;11.90;5.40;;;;;;;4.68;74.12;101335.11;107552;1251;98377;-64
2023/12/27 06:58:44;;;;;;;15.30;6.00;;;;;;;4.71;73.89;101339.41;107543;1251;111986;-65
2023/12/27 07:01:16;;;;;;;13.50;6.00;;;;;;;4.73;73.72;101339.48;107590;1251;109000;-63
2023/12/27 07:03:45;;;;;;;10.20;4.60;;;;;;;4.75;73.39;101336.02;107600;1251;108163;-63
2023/12/27 07:06:13;;;;;;;10.80;4.90;;;;;;;4.80;73.51;101349.41;107588;1251;97841;-64
2023/12/27 07:08:43;;;;;;;10.60;5.50;;;;;;;4.87;73.63;101357.70;107554;1251;97700;-65
2023/12/27 07:11:18;;;;;;;10.60;5.80;;;;;;;4.97;73.43;101361.42;107630;1251;110579;-64
2023/12/27 07:13:47;;;;;;;10.20;5.70;;;;;;;5.10;73.39;101368.39;107602;1251;107452;-64
2023/12/27 07:16:15;;;;;;;14.30;6.10;;;;;;;5.18;73.22;101368.27;107470;1257;107933;-65
2023/12/27 07:18:44;;;;;;;17.10;6.70;;;;;;;5.29;73.35;101378.52;107586;1254;97933;-64
2023/12/27 07:21:12;;;;;;;21.90;9.00;;;;;;;5.42;73.28;101383.83;107596;1251;99543;-64
2023/12/27 07:23:41;;;;;;;20.30;8.70;;;;;;;5.56;73.63;101389.77;107644;1251;111891;-63
2023/12/27 07:26:13;;;;;;;54.20;27.00;;;;;;;5.69;73.36;101388.88;107636;1251;108335;-64
2023/12/27 07:28:41;;;;;;;23.30;9.80;;;;;;;5.83;73.33;101391.98;107617;1251;106229;-65
2023/12/27 07:31:10;;;;;;;23.20;10.10;;;;;;;5.93;73.36;101392.84;107647;1251;97873;-63
2023/12/27 07:33:39;;;;;;;24.00;11.00;;;;;;;6.03;73.32;101396.91;107562;1251;97899;-64
2023/12/27 07:36:08;;;;;;;17.50;9.20;;;;;;;6.18;73.25;101400.62;107512;1251;109799;-64
2023/12/27 07:38:37;;;;;;;21.70;10.30;;;;;;;6.33;73.26;101405.44;107614;1251;107425;-62
2023/12/27 07:41:05;;;;;;;32.70;10.70;;;;;;;6.48;73.15;101409.17;107494;1254;108079;-64
2023/12/27 07:43:35;;;;;;;24.30;10.50;;;;;;;6.64;73.25;101412.49;107547;1251;97829;-64
2023/12/27 07:46:04;;;;;;;19.90;8.40;;;;;;;6.80;72.91;101417.70;107559;1251;98039;-65
2023/12/27 07:48:33;;;;;;;18.70;7.60;;;;;;;6.96;72.79;101423.31;107592;1251;111769;-65
2023/12/27 07:51:01;;;;;;;15.50;7.70;;;;;;;7.16;72.28;101433.67;107623;1251;108278;-63
2023/12/27 07:53:31;;;;;;;21.40;7.90;;;;;;;7.37;71.61;101435.19;107589;1254;108323;-64
2023/12/27 07:55:59;;;;;;;20.40;8.20;;;;;;;7.58;70.72;101439.20;107583;1255;97873;-63
2023/12/27 07:58:27;;;;;;;16.60;7.90;;;;;;;7.76;70.46;101438.52;107589;1251;99560;-65
2023/12/27 08:00:56;;;;;;;18.70;9.70;;;;;;;7.94;70.70;101440.92;107613;1251;110699;-66
2023/12/27 08:03:25;;;;;;;20.00;9.20;;;;;;;8.13;70.68;101445.91;107567;1251;108400;-65
2023/12/27 08:05:53;;;;;;;17.40;8.10;;;;;;;8.29;70.58;101449.69;107636;1251;108417;-64
2023/12/27 08:08:21;;;;;;;15.90;7.60;;;;;;;8.43;69.10;101449.95;107557;1254;97855;-66
2023/12/27 08:10:50;;;;;;;13.30;7.30;;;;;;;8.51;67.42;101454.29;107577;1251;97822;-65
2023/12/27 08:13:18;;;;;;;18.20;7.70;;;;;;;8.61;67.33;101454.35;107577;1251;112742;-64
2023/12/27 08:15:46;;;;;;;13.80;7.50;;;;;;;8.78;67.29;101462.61;107555;1251;107985;-64
2023/12/27 08:18:15;;;;;;;13.60;6.40;;;;;;;8.94;64.86;101467.27;107562;1251;107909;-62
2023/12/27 08:20:44;;;;;;;15.30;5.70;;;;;;;8.96;62.48;101467.96;107553;1255;97831;-65
2023/12/27 08:23:13;;;;;;;8.60;4.30;;;;;;;8.92;61.67;101475.41;107621;1251;97851;-64
2023/12/27 08:25:41;;;;;;;9.00;4.00;;;;;;;8.87;61.52;101475.96;107582;1251;110891;-65
2023/12/27 08:28:10;;;;;;;8.90;4.00;;;;;;;8.83;60.53;101478.95;107613;1251;108252;-64
2023/12/27 08:30:39;;;;;;;7.10;3.50;;;;;;;8.77;60.14;101482.73;107529;1251;107268;-64
2023/12/27 08:33:08;;;;;;;7.50;3.60;;;;;;;8.78;60.36;101482.70;107568;1255;97832;-64
2023/12/27 08:35:37;;;;;;;6.60;2.90;;;;;;;8.84;59.75;101491.02;107659;1251;98360;-64
2023/12/27 08:38:05;;;;;;;8.40;3.90;;;;;;;8.87;59.48;101497.05;107572;1251;111355;-66
2023/12/27 08:40:34;;;;;;;6.90;3.60;;;;;;;8.95;58.81;101506.13;107599;1251;107224;-65
2023/12/27 08:43:02;;;;;;;9.50;4.00;;;;;;;9.02;58.79;101504.07;106926;1251;824608;-65
2023/12/27 08:45:31;;;;;;;10.60;4.00;;;;;;;9.03;58.97;101508.48;107503;1250;98270;-66
2023/12/27 08:48:00;;;;;;;4.90;2.80;;;;;;;9.05;58.06;101510.29;107497;1251;97845;-64
2023/12/27 08:50:29;;;;;;;7.00;3.10;;;;;;;9.11;58.16;101516.67;107639;1251;111815;-67
2023/12/27 08:52:58;;;;;;;15.50;4.10;;;;;;;9.16;57.92;101515.60;107502;1250;108140;-63
2023/12/27 08:55:27;;;;;;;8.40;3.60;;;;;;;9.23;57.47;101522.08;107523;1252;107993;-62
2023/12/27 08:57:55;;;;;;;8.30;4.80;;;;;;;9.32;57.39;101521.27;107622;1251;97906;-64
2023/12/27 09:00:24;;;;;;;7.00;2.70;;;;;;;9.40;56.23;101520.56;107581;1254;98348;-64
2023/12/27 09:02:53;;;;;;;10.00;2.00;;;;;;;9.48;55.48;101515.83;107400;1254;111825;-64
2023/12/27 09:05:22;;;;;;;6.30;2.30;;;;;;;9.49;54.61;101515.05;107588;1256;108669;-64
2023/12/27 09:07:50;;;;;;;9.90;2.80;;;;;;;9.56;55.29;101519.41;107575;1253;108987;-66
2023/12/27 09:10:18;;;;;;;4.20;2.40;;;;;;;9.60;55.34;101521.47;107611;1253;98100;-65
2023/12/27 09:12:47;;;;;;;3.60;1.40;;;;;;;9.65;54.69;101523.95;107650;1255;97818;-64
2023/12/27 09:15:15;;;;;;;5.60;2.00;;;;;;;9.63;53.68;101521.25;107558;1251;110774;-64
2023/12/27 09:17:44;;;;;;;7.60;1.50;;;;;;;9.64;54.33;101521.11;107625;1251;107426;-63
2023/12/27 09:20:12;;;;;;;9.90;1.30;;;;;;;9.66;54.26;101516.35;107575;1254;107146;-63
2023/12/27 09:22:40;;;;;;;4.20;1.90;;;;;;;9.70;54.80;101518.70;107614;1251;97837;-64
2023/12/27 09:25:12;;;;;;;3.60;1.70;;;;;;;9.72;54.12;101522.02;107611;1251;97846;-64
2023/12/27 09:27:40;;;;;;;6.60;2.20;;;;;;;9.69;53.88;101521.46;107606;1251;111274;-64
2023/12/27 09:30:10;;;;;;;5.50;2.00;;;;;;;9.67;53.66;101525.19;107625;1251;107807;-62
2023/12/27 09:32:39;;;;;;;6.80;1.40;;;;;;;9.59;52.60;101529.77;107661;1251;108700;-62
2023/12/27 09:35:08;;;;;;;7.50;1.80;;;;;;;9.51;53.54;101526.92;107604;1256;97921;-64
2023/12/27 09:37:37;;;;;;;5.20;1.30;;;;;;;9.49;53.87;101527.63;107620;1251;97867;-62
2023/12/27 09:40:07;;;;;;;7.80;1.50;;;;;;;9.47;53.53;101529.75;107645;1251;112018;-66
2023/12/27 09:42:38;;;;;;;1.70;1.20;;;;;;;9.45;53.52;101524.70;107624;1251;107729;-63
2023/12/27 09:45:09;;;;;;;1.60;0.90;;;;;;;9.46;53.54;101527.99;107630;1255;108625;-65
2023/12/27 09:47:39;;;;;;;5.20;1.30;;;;;;;9.50;53.67;101530.77;107593;1251;97844;-64
2023/12/27 09:50:08;;;;;;;4.20;1.40;;;;;;;9.51;53.32;101535.50;107708;1251;97729;-65
2023/12/27 09:52:41;;;;;;;1.80;0.90;;;;;;;9.49;53.60;101537.09;107640;1251;110425;-64
2023/12/27 09:55:10;;;;;;;1.90;0.90;;;;;;;9.47;53.02;101534.54;107628;1251;107924;-63
2023/12/27 09:57:41;;;;;;;4.70;1.00;;;;;;;9.48;53.17;101534.98;107596;1256;107027;-63
2023/12/27 10:00:12;;;;;;;2.60;1.20;;;;;;;9.52;53.14;101531.33;107616;1251;97826;-65
2023/12/27 10:02:44;;;;;;;1.50;1.10;;;;;;;9.52;53.26;101533.43;107603;1251;97820;-69
2023/12/27 10:05:21;;;;;;;5.00;1.30;;;;;;;9.47;53.20;101534.91;107614;1251;111035;-65
2023/12/27 10:07:50;;;;;;;4.20;1.20;;;;;;;9.43;53.51;101537.70;107588;1251;107466;-65
2023/12/27 10:10:19;;;;;;;3.10;1.00;;;;;;;9.38;53.63;101537.86;107614;1251;108198;-64
2023/12/27 10:12:59;;;;;;;2.20;1.20;;;;;;;9.34;53.70;101534.41;107642;1252;97848;-65
2023/12/27 10:15:28;;;;;;;1.70;0.80;;;;;;;9.27;53.89;101541.31;107613;1255;97707;-64
2023/12/27 10:17:56;;;;;;;1.70;1.00;;;;;;;9.23;53.98;101543.94;107598;1251;110493;-65
2023/12/27 10:20:38;;;;;;;2.10;0.90;;;;;;;9.20;54.02;101546.48;107651;1251;107463;-65
2023/12/27 10:23:06;;;;;;;4.30;1.20;;;;;;;9.13;54.45;101546.65;107590;1255;108567;-65
2023/12/27 10:25:36;;;;;;;3.50;2.40;;;;;;;9.08;54.83;101541.95;107594;1251;97848;-64
2023/12/27 10:28:04;;;;;;;18.60;3.70;;;;;;;9.06;54.92;101542.96;107647;1251;97940;-65
2023/12/27 10:30:33;;;;;;;6.10;3.00;;;;;;;9.03;55.17;101544.07;107601;1251;111853;-65
2023/12/27 10:33:03;;;;;;;16.10;2.10;;;;;;;9.02;55.05;101545.95;107594;1251;108379;-65
2023/12/27 10:35:32;;;;;;;5.60;1.80;;;;;;;9.01;54.98;101550.30;107591;1251;107094;-65
2023/12/27 10:38:04;;;;;;;9.50;1.70;;;;;;;8.94;54.59;101557.91;107621;1251;98470;-66
2023/12/27 10:40:35;;;;;;;5.50;2.10;;;;;;;8.94;54.62;101565.45;107514;1251;97828;-65
2023/12/27 10:43:03;;;;;;;3.00;1.30;;;;;;;8.98;54.55;101564.31;107529;1250;112267;-65
2023/12/27 10:45:33;;;;;;;15.20;4.20;;;;;;;8.98;54.55;101566.83;107547;1251;108163;-64
2023/12/27 10:48:06;;;;;;;3.80;2.00;;;;;;;8.98;54.80;101569.66;107482;1251;106825;-65
2023/12/27 10:50:35;;;;;;;2.50;1.00;;;;;;;9.03;54.17;101568.78;107491;1251;97825;-66
2023/12/27 10:53:06;;;;;;;6.90;1.10;;;;;;;9.06;53.69;101563.40;107502;1251;97726;-64
2023/12/27 10:55:38;;;;;;;3.50;1.20;;;;;;;9.04;52.78;101567.43;107505;1251;112090;-65
2023/12/27 10:58:15;;;;;;;3.10;1.10;;;;;;;9.03;52.94;101565.37;107497;1250;108590;-64
2023/12/27 11:00:46;;;;;;;4.30;1.20;;;;;;;9.02;53.11;101564.92;107521;1251;107339;-65
2023/12/27 11:03:16;;;;;;;4.60;0.80;;;;;;;9.05;53.28;101566.32;107429;1251;98248;-65
2023/12/27 11:05:46;;;;;;;1.40;0.90;;;;;;;9.06;52.88;101566.79;107588;1251;97790;-65
2023/12/27 11:08:17;;;;;;;4.80;1.10;;;;;;;9.14;53.27;101570.55;107647;1251;110812;-65
2023/12/27 11:10:48;;;;;;;2.90;1.10;;;;;;;9.20;52.94;101570.08;107615;1253;107343;-65
2023/12/27 11:13:19;;;;;;;3.50;1.60;;;;;;;9.25;52.82;101568.85;107598;1254;107588;-64
2023/12/27 11:15:53;;;;;;;3.70;1.50;;;;;;;9.29;52.66;101568.03;107590;1251;97825;-65
2023/12/27 11:18:23;;;;;;;3.00;1.60;;;;;;;9.29;52.49;101569.10;107646;1251;98360;-65
2023/12/27 11:20:54;;;;;;;4.10;1.60;;;;;;;9.26;52.26;101569.55;107595;1252;111843;-63
2023/12/27 11:23:24;;;;;;;4.90;1.50;;;;;;;9.31;52.51;101566.48;107737;1251;108412;-63
2023/12/27 11:25:54;;;;;;;2.10;1.10;;;;;;;9.39;52.29;101572.15;107564;1251;108119;-65